Shindler, South Dakota
Current Conditions -  °F | °C
As of 12:56 PM on Friday 31 Oct 2014 (Local Time) from KFSD Reporting Station
Few Clouds Few Clouds  
Wind Chill: 31°   Ceiling: Unl
Heat Index: 36°   Visibility: 10mi
Dew Point: 20°   Wind: 6mph
Humidity: 52%   Direction: 80°E
Pressure: 30.56"   Gusts: NA
Location:  43.5199°N, 96.7933°W
Report Text: KFSD 311756Z 08005KT 10SM FEW250 02/M07 A3056 RMK AO2 SLP366 T00221067 10022 21072 58012
Loading
Personal Weather Stations






























Interactive Weather Map
Tropical Storm Tracking
New forecast layout! Learn more

10-Day Weather Forecast

Advertisements
Track Severe Weather on mobile